createdAt,value
2018-09-24T00:00:51.859Z,0.37
2018-09-24T00:03:17.938Z,0.20
2018-09-24T00:05:44.029Z,0.30
2018-09-24T00:08:10.224Z,0.20
2018-09-24T00:10:36.325Z,0.20
2018-09-24T00:13:02.423Z,0.20
2018-09-24T00:15:28.495Z,0.10
2018-09-24T00:17:54.565Z,0.30
2018-09-24T00:20:20.695Z,0.10
2018-09-24T00:22:46.770Z,0.30
2018-09-24T00:25:12.871Z,0.20
2018-09-24T00:27:38.932Z,0.20
2018-09-24T00:30:05.023Z,0.10
2018-09-24T00:32:31.079Z,0.30
2018-09-24T00:34:57.167Z,0.17
2018-09-24T00:37:23.293Z,0.10
2018-09-24T00:39:49.388Z,0.20
2018-09-24T00:42:15.520Z,0.20
2018-09-24T00:44:41.623Z,0.20
2018-09-24T00:47:07.742Z,0.30
2018-09-24T00:49:33.861Z,0.10
2018-09-24T00:51:59.979Z,0.27
2018-09-24T00:54:26.062Z,0.30
2018-09-24T00:56:52.158Z,0.20
2018-09-24T00:59:18.271Z,0.10
2018-09-24T01:01:44.357Z,0.20
2018-09-24T01:04:10.433Z,0.30
2018-09-24T01:06:36.553Z,0.30
2018-09-24T01:09:02.734Z,0.10
2018-09-24T01:11:28.847Z,0.10
2018-09-24T01:13:54.919Z,0.20
2018-09-24T01:16:21.043Z,0.17
2018-09-24T01:18:47.145Z,0.10
2018-09-24T01:21:13.249Z,0.27
2018-09-24T01:23:39.364Z,0.20
2018-09-24T01:26:05.509Z,0.23
2018-09-24T01:28:31.614Z,0.30
2018-09-24T01:30:57.850Z,0.20
2018-09-24T01:33:23.939Z,0.20
2018-09-24T01:35:50.037Z,0.40
2018-09-24T01:38:16.160Z,0.20
2018-09-24T01:40:42.309Z,0.20
2018-09-24T01:43:09.174Z,0.30
2018-09-24T01:45:35.315Z,0.20
2018-09-24T01:48:01.411Z,0.30
2018-09-24T01:50:27.732Z,0.20
2018-09-24T01:52:54.227Z,0.30
2018-09-24T01:55:20.315Z,0.10
2018-09-24T01:57:46.411Z,0.23
2018-09-24T02:00:12.531Z,0.30
2018-09-24T02:02:38.587Z,0.27
2018-09-24T02:05:05.879Z,0.30
2018-09-24T02:07:31.949Z,0.10
2018-09-24T02:09:58.061Z,0.27
2018-09-24T02:12:24.143Z,0.23
2018-09-24T02:14:50.225Z,0.30
2018-09-24T02:17:16.593Z,0.30
2018-09-24T02:19:42.699Z,0.23
2018-09-24T02:22:09.221Z,0.20
2018-09-24T02:24:35.309Z,0.20
2018-09-24T02:27:04.579Z,0.23
2018-09-24T02:29:30.650Z,0.30
2018-09-24T02:31:56.777Z,0.40
2018-09-24T02:34:25.057Z,0.30
2018-09-24T02:36:51.183Z,0.30
2018-09-24T02:39:17.336Z,0.30
2018-09-24T02:41:43.457Z,0.30
2018-09-24T02:44:09.520Z,0.60
2018-09-24T02:46:40.613Z,0.30
2018-09-24T02:49:06.824Z,0.40
2018-09-24T02:51:32.925Z,0.30
2018-09-24T02:53:59.054Z,0.30
2018-09-24T02:56:25.185Z,0.30
2018-09-24T02:58:51.268Z,0.37
2018-09-24T03:01:17.408Z,0.30
2018-09-24T03:03:43.497Z,0.40
2018-09-24T03:06:09.623Z,0.30
2018-09-24T03:08:35.735Z,0.30
2018-09-24T03:11:03.018Z,0.40
2018-09-24T03:13:29.086Z,0.30
2018-09-24T03:15:55.172Z,0.90
2018-09-24T03:18:21.262Z,0.47
2018-09-24T03:20:47.350Z,0.33
2018-09-24T03:23:13.439Z,0.20
2018-09-24T03:25:39.635Z,0.40
2018-09-24T03:28:05.775Z,0.50
2018-09-24T03:30:32.322Z,0.40
2018-09-24T03:32:58.420Z,0.37
2018-09-24T03:35:24.518Z,0.40
2018-09-24T03:37:50.602Z,0.40
2018-09-24T03:40:16.689Z,0.40
2018-09-24T03:42:42.786Z,0.40
2018-09-24T03:45:08.880Z,0.50
2018-09-24T03:47:35.002Z,0.60
2018-09-24T03:50:01.082Z,0.47
2018-09-24T03:52:27.167Z,0.40
2018-09-24T03:54:54.162Z,0.53
2018-09-24T03:57:20.286Z,0.40
2018-09-24T03:59:47.042Z,0.30
2018-09-24T04:02:13.102Z,0.50
2018-09-24T04:04:39.188Z,0.60
2018-09-24T04:07:05.296Z,0.60
2018-09-24T04:09:31.393Z,0.60
2018-09-24T04:11:57.494Z,0.67
2018-09-24T04:14:23.605Z,1.00
2018-09-24T04:16:49.702Z,0.90
2018-09-24T04:19:15.782Z,8.13
2018-09-24T04:21:41.897Z,15.10
2018-09-24T04:24:08.006Z,20.53
2018-09-24T04:26:34.123Z,26.17
2018-09-24T04:29:00.329Z,26.40
2018-09-24T04:31:26.719Z,25.27
2018-09-24T04:33:52.814Z,20.07
2018-09-24T04:36:18.898Z,19.37
2018-09-24T04:38:45.000Z,17.90
2018-09-24T04:41:11.092Z,15.47
2018-09-24T04:43:37.192Z,14.27
2018-09-24T04:46:03.312Z,10.40
2018-09-24T04:48:30.514Z,4.37
2018-09-24T04:50:56.628Z,2.17
2018-09-24T04:53:22.748Z,1.70
2018-09-24T04:55:48.850Z,1.40
2018-09-24T04:58:14.950Z,1.80
2018-09-24T05:00:41.026Z,1.40
2018-09-24T05:03:07.092Z,1.40
2018-09-24T05:05:33.226Z,1.23
2018-09-24T05:07:59.336Z,1.70
2018-09-24T05:10:25.467Z,1.00
2018-09-24T05:12:51.894Z,1.00
2018-09-24T05:15:17.986Z,1.00
2018-09-24T05:17:44.086Z,1.10
2018-09-24T05:20:10.224Z,1.03
2018-09-24T05:22:36.297Z,1.20
2018-09-24T05:25:02.423Z,1.30
2018-09-24T05:27:28.867Z,1.53
2018-09-24T05:29:54.853Z,1.07
2018-09-24T05:32:20.959Z,1.17
2018-09-24T05:34:47.086Z,1.30
2018-09-24T05:37:13.178Z,0.90
2018-09-24T05:39:39.298Z,1.00
2018-09-24T05:42:05.450Z,0.90
2018-09-24T05:44:31.514Z,0.90
2018-09-24T05:46:57.597Z,1.03
2018-09-24T05:49:23.816Z,1.37
2018-09-24T05:51:49.931Z,1.23
2018-09-24T05:54:16.027Z,1.00
2018-09-24T05:56:42.191Z,0.80
2018-09-24T05:59:08.359Z,1.10
2018-09-24T06:01:34.434Z,0.80
2018-09-24T06:04:00.568Z,1.10
2018-09-24T06:06:26.694Z,1.00
2018-09-24T06:08:52.763Z,0.90
2018-09-24T06:11:18.845Z,0.97
2018-09-24T06:13:44.982Z,1.30
2018-09-24T06:16:11.058Z,1.00
2018-09-24T06:18:37.149Z,0.97
2018-09-24T06:21:03.245Z,1.23
2018-09-24T06:23:29.361Z,0.97
2018-09-24T06:25:55.491Z,1.00
2018-09-24T06:28:21.601Z,1.10
2018-09-24T06:30:47.655Z,0.70
2018-09-24T06:33:13.727Z,0.90
2018-09-24T06:35:39.815Z,0.87
2018-09-24T06:38:05.930Z,0.70
2018-09-24T06:40:32.029Z,1.00
2018-09-24T06:42:58.117Z,1.10
2018-09-24T06:45:24.220Z,1.10
2018-09-24T06:47:50.481Z,0.80
2018-09-24T06:50:16.601Z,1.27
2018-09-24T06:52:42.691Z,1.07
2018-09-24T06:55:08.777Z,1.00
2018-09-24T06:57:34.846Z,1.10
2018-09-24T07:00:00.950Z,0.83
2018-09-24T07:02:27.082Z,0.77
2018-09-24T07:04:53.218Z,0.90
2018-09-24T07:07:19.334Z,1.00
2018-09-24T07:09:45.502Z,0.70
2018-09-24T07:12:11.603Z,0.90
2018-09-24T07:14:37.739Z,1.00
2018-09-24T07:17:03.878Z,0.90
2018-09-24T07:19:29.957Z,0.90
2018-09-24T07:21:56.042Z,0.87
2018-09-24T07:24:22.166Z,0.80
2018-09-24T07:26:48.246Z,0.90
2018-09-24T07:29:14.303Z,0.93
2018-09-24T07:31:40.388Z,0.70
2018-09-24T07:34:06.466Z,0.83
2018-09-24T07:36:32.592Z,0.70
2018-09-24T07:38:58.680Z,0.80
2018-09-24T07:41:24.780Z,0.70
2018-09-24T07:43:50.858Z,1.13
2018-09-24T07:46:16.970Z,0.70
2018-09-24T07:48:43.055Z,1.30
2018-09-24T07:51:09.166Z,0.80
2018-09-24T07:53:35.270Z,0.70
2018-09-24T07:56:03.607Z,1.00
2018-09-24T07:58:29.704Z,0.87
2018-09-24T08:00:55.893Z,0.80
2018-09-24T08:03:21.979Z,0.60
2018-09-24T08:05:48.123Z,0.80
2018-09-24T08:08:14.210Z,0.90
2018-09-24T08:10:40.314Z,0.87
2018-09-24T08:13:06.424Z,1.20
2018-09-24T08:15:32.496Z,0.93
2018-09-24T08:17:58.604Z,1.00
2018-09-24T08:20:24.708Z,1.00
2018-09-24T08:22:50.800Z,1.00
2018-09-24T08:25:16.952Z,1.00
2018-09-24T08:27:43.041Z,0.80
2018-09-24T08:30:09.122Z,0.83
2018-09-24T08:32:35.232Z,0.80
2018-09-24T08:35:01.350Z,1.07
2018-09-24T08:37:27.490Z,0.90
2018-09-24T08:39:53.628Z,0.77
2018-09-24T08:42:19.749Z,0.90
2018-09-24T08:44:45.832Z,0.70
2018-09-24T08:47:11.916Z,0.93
2018-09-24T08:49:38.067Z,0.80
2018-09-24T08:52:04.140Z,0.70
2018-09-24T08:54:30.214Z,0.93
2018-09-24T08:56:56.431Z,0.90
2018-09-24T08:59:22.498Z,1.10
2018-09-24T09:01:48.634Z,1.20
2018-09-24T09:04:14.732Z,1.20
2018-09-24T09:06:40.826Z,1.00
2018-09-24T09:09:09.079Z,0.70
2018-09-24T09:11:35.170Z,1.00
2018-09-24T09:14:01.303Z,1.03
2018-09-24T09:16:27.413Z,0.90
2018-09-24T09:18:53.495Z,1.00
2018-09-24T09:21:19.561Z,0.93
2018-09-24T09:23:45.672Z,0.97
2018-09-24T09:26:11.782Z,1.10
2018-09-24T09:28:37.887Z,1.00
2018-09-24T09:31:03.995Z,1.13
2018-09-24T09:33:30.071Z,1.00
2018-09-24T09:35:56.156Z,1.10
2018-09-24T09:38:23.704Z,1.10
2018-09-24T09:40:49.800Z,1.03
2018-09-24T09:43:15.932Z,0.83
2018-09-24T09:45:42.047Z,0.83
2018-09-24T09:48:08.123Z,0.80
2018-09-24T09:50:34.223Z,1.10
2018-09-24T09:53:00.339Z,0.97
2018-09-24T09:55:26.450Z,1.10
2018-09-24T09:57:52.535Z,0.87
2018-09-24T10:00:18.649Z,1.10
2018-09-24T10:02:44.735Z,0.90
2018-09-24T10:05:10.845Z,0.87
2018-09-24T10:07:36.946Z,1.77
2018-09-24T10:10:03.259Z,1.00
2018-09-24T10:12:29.458Z,0.90
2018-09-24T10:14:56.255Z,1.10
2018-09-24T10:17:22.319Z,0.90
2018-09-24T10:19:48.433Z,1.00
2018-09-24T10:22:14.516Z,1.00
2018-09-24T10:24:40.632Z,1.00
2018-09-24T10:27:06.735Z,0.90
2018-09-24T10:29:32.821Z,0.80
2018-09-24T10:31:58.915Z,1.07
2018-09-24T10:34:26.818Z,0.90
2018-09-24T10:36:52.969Z,1.10
2018-09-24T10:39:19.059Z,1.10
2018-09-24T10:41:45.157Z,1.03
2018-09-24T10:44:11.217Z,1.00
2018-09-24T10:46:37.287Z,0.90
2018-09-24T10:49:03.359Z,0.93
2018-09-24T10:51:29.459Z,1.00
2018-09-24T10:53:56.225Z,1.20
2018-09-24T10:56:22.324Z,1.10
2018-09-24T10:58:48.446Z,1.00
2018-09-24T11:01:14.590Z,0.83
2018-09-24T11:03:40.717Z,0.83
2018-09-24T11:06:06.796Z,1.23
2018-09-24T11:08:33.633Z,0.90
2018-09-24T11:10:59.763Z,0.90
2018-09-24T11:13:25.847Z,0.93
2018-09-24T11:15:52.128Z,1.10
2018-09-24T11:18:18.145Z,0.90
2018-09-24T11:20:44.219Z,0.80
2018-09-24T11:23:10.291Z,0.90
2018-09-24T11:25:36.384Z,0.80
2018-09-24T11:28:03.711Z,0.97
2018-09-24T11:30:29.863Z,0.90
2018-09-24T11:32:55.984Z,1.13
2018-09-24T11:35:22.114Z,0.70
2018-09-24T11:37:48.197Z,0.90
2018-09-24T11:40:14.300Z,0.87
2018-09-24T11:42:40.383Z,1.10
2018-09-24T11:45:06.493Z,0.70
2018-09-24T11:47:32.582Z,0.80
2018-09-24T11:49:58.701Z,0.73
2018-09-24T11:52:24.785Z,1.27
2018-09-24T11:54:50.899Z,0.80
2018-09-24T11:57:16.997Z,1.10
2018-09-24T11:59:43.074Z,0.80
2018-09-24T12:02:09.235Z,0.80
2018-09-24T12:04:35.415Z,0.80
2018-09-24T12:07:02.595Z,1.20
2018-09-24T12:09:32.297Z,0.80
2018-09-24T12:11:58.430Z,1.27
2018-09-24T12:14:24.589Z,0.80
2018-09-24T12:16:50.689Z,0.60
2018-09-24T12:19:16.830Z,0.90
2018-09-24T12:21:44.157Z,0.90
2018-09-24T12:24:12.084Z,1.57
2018-09-24T12:26:38.870Z,0.93
2018-09-24T12:29:04.992Z,0.73
2018-09-24T12:31:31.090Z,1.00
2018-09-24T12:33:58.216Z,0.80
2018-09-24T12:36:24.362Z,0.87
2018-09-24T12:38:50.474Z,0.87
2018-09-24T12:41:16.579Z,1.00
2018-09-24T12:43:42.685Z,0.80
2018-09-24T12:46:08.875Z,0.87
2018-09-24T12:48:35.005Z,1.20
2018-09-24T12:51:01.121Z,0.63
2018-09-24T12:53:27.819Z,1.10
2018-09-24T12:55:53.829Z,1.20
2018-09-24T12:58:26.928Z,1.10
2018-09-24T13:00:53.002Z,0.70
2018-09-24T13:03:19.117Z,0.90
2018-09-24T13:05:45.204Z,0.93
2018-09-24T13:08:11.377Z,0.80
2018-09-24T13:10:37.488Z,0.77
2018-09-24T13:13:04.209Z,0.90
2018-09-24T13:15:30.318Z,0.90
2018-09-24T13:17:56.450Z,0.83
2018-09-24T13:20:22.842Z,0.80
2018-09-24T13:22:49.002Z,0.93
2018-09-24T13:25:15.105Z,0.90
2018-09-24T13:27:41.212Z,0.80
2018-09-24T13:30:07.355Z,0.83
2018-09-24T13:32:33.513Z,0.70
2018-09-24T13:34:59.553Z,0.70
2018-09-24T13:37:25.854Z,0.80
2018-09-24T13:39:51.985Z,0.87
2018-09-24T13:42:18.094Z,0.70
2018-09-24T13:44:44.179Z,1.03
2018-09-24T13:47:10.294Z,0.70
2018-09-24T13:49:36.410Z,0.83
2018-09-24T13:52:02.498Z,0.80
2018-09-24T13:54:28.862Z,0.63
2018-09-24T13:56:54.986Z,0.80
2018-09-24T13:59:21.099Z,0.97
2018-09-24T14:01:47.200Z,0.50
2018-09-24T14:04:13.309Z,0.77
2018-09-24T14:06:39.403Z,0.70
2018-09-24T14:09:06.262Z,0.83
2018-09-24T14:11:32.339Z,0.80
2018-09-24T14:13:58.441Z,0.70
2018-09-24T14:16:24.558Z,0.70
2018-09-24T14:18:50.666Z,0.90
2018-09-24T14:21:16.806Z,0.70
2018-09-24T14:23:42.994Z,0.60
2018-09-24T14:26:09.090Z,1.00
2018-09-24T14:28:35.190Z,0.90
2018-09-24T14:31:01.947Z,0.80
2018-09-24T14:33:28.019Z,0.77
2018-09-24T14:35:54.144Z,1.30
2018-09-24T14:38:20.221Z,0.87
2018-09-24T14:40:46.297Z,0.83
2018-09-24T14:43:12.913Z,0.87
2018-09-24T14:45:39.027Z,1.17
2018-09-24T14:48:05.156Z,1.20
2018-09-24T14:50:31.341Z,0.90
2018-09-24T14:52:57.717Z,1.10
2018-09-24T14:55:23.943Z,0.87
2018-09-24T14:57:50.086Z,0.90
2018-09-24T15:00:16.959Z,0.80
2018-09-24T15:02:43.097Z,0.70
2018-09-24T15:05:09.225Z,1.00
2018-09-24T15:07:35.306Z,1.03
2018-09-24T15:10:01.383Z,0.83
2018-09-24T15:12:27.530Z,0.80
2018-09-24T15:14:53.622Z,0.60
2018-09-24T15:17:20.373Z,0.73
2018-09-24T15:19:46.490Z,0.87
2018-09-24T15:22:12.576Z,0.90
2018-09-24T15:24:38.698Z,1.10
2018-09-24T15:27:04.879Z,1.27
2018-09-24T15:29:30.972Z,1.87
2018-09-24T15:31:57.121Z,2.10
2018-09-24T15:34:23.245Z,2.23
2018-09-24T15:36:49.360Z,1.77
2018-09-24T15:39:15.441Z,1.93
2018-09-24T15:41:41.577Z,1.80
2018-09-24T15:44:07.710Z,1.93
2018-09-24T15:46:33.840Z,1.50
2018-09-24T15:48:59.922Z,1.73
2018-09-24T15:51:26.057Z,1.60
2018-09-24T15:53:52.228Z,1.67
2018-09-24T15:56:18.276Z,1.17
2018-09-24T15:58:44.384Z,1.30
2018-09-24T16:01:10.808Z,1.27
2018-09-24T16:03:36.926Z,1.40
2018-09-24T16:06:03.684Z,1.10
2018-09-24T16:08:29.767Z,1.10
2018-09-24T16:10:55.904Z,1.17
2018-09-24T16:13:22.079Z,1.30
2018-09-24T16:15:48.206Z,1.17
2018-09-24T16:18:14.304Z,1.03
2018-09-24T16:20:40.725Z,1.43
2018-09-24T16:23:06.815Z,1.10
2018-09-24T16:25:32.898Z,1.30
2018-09-24T16:27:59.024Z,0.87
2018-09-24T16:30:25.140Z,1.50
2018-09-24T16:32:51.266Z,1.63
2018-09-24T16:35:17.396Z,1.60
2018-09-24T16:37:43.679Z,1.17
2018-09-24T16:40:09.806Z,1.37
2018-09-24T16:42:35.923Z,1.40
2018-09-24T16:45:02.016Z,1.40
2018-09-24T16:47:28.166Z,1.63
2018-09-24T16:49:54.325Z,1.20
2018-09-24T16:52:20.392Z,1.30
2018-09-24T16:54:46.475Z,1.40
2018-09-24T16:57:12.616Z,1.17
2018-09-24T16:59:38.712Z,1.40
2018-09-24T17:02:04.848Z,1.20
2018-09-24T17:04:30.954Z,1.20
2018-09-24T17:06:57.032Z,1.37
2018-09-24T17:09:23.172Z,1.77
2018-09-24T17:11:49.365Z,1.30
2018-09-24T17:14:15.388Z,1.20
2018-09-24T17:16:41.498Z,1.10
2018-09-24T17:19:07.665Z,1.60
2018-09-24T17:21:34.800Z,1.03
2018-09-24T17:24:00.935Z,1.47
2018-09-24T17:26:27.107Z,1.20
2018-09-24T17:28:53.211Z,1.43
2018-09-24T17:31:19.335Z,1.20
2018-09-24T17:33:45.422Z,1.30
2018-09-24T17:36:11.505Z,1.07
2018-09-24T17:38:37.621Z,0.97
2018-09-24T17:41:03.740Z,1.10
2018-09-24T17:43:29.848Z,1.00
2018-09-24T17:45:56.104Z,1.70
2018-09-24T17:48:22.227Z,1.20
2018-09-24T17:50:48.346Z,0.70
2018-09-24T17:53:14.508Z,0.90
2018-09-24T17:55:40.603Z,1.03
2018-09-24T17:58:06.707Z,1.17
2018-09-24T18:00:32.854Z,1.40
2018-09-24T18:02:58.965Z,1.33
2018-09-24T18:05:25.101Z,1.10
2018-09-24T18:07:51.320Z,1.30
2018-09-24T18:10:17.454Z,1.10
2018-09-24T18:12:43.763Z,1.50
2018-09-24T18:15:10.886Z,1.43
2018-09-24T18:17:37.172Z,0.80
2018-09-24T18:20:03.349Z,1.50
2018-09-24T18:22:29.467Z,1.27
2018-09-24T18:24:55.606Z,1.50
2018-09-24T18:27:21.709Z,1.50
2018-09-24T18:29:47.799Z,1.87
2018-09-24T18:32:13.910Z,1.50
2018-09-24T18:34:40.029Z,1.60
2018-09-24T18:37:06.216Z,1.70
2018-09-24T18:39:32.289Z,1.50
2018-09-24T18:41:58.403Z,1.53
2018-09-24T18:44:24.524Z,2.30
2018-09-24T18:46:50.669Z,1.87
2018-09-24T18:49:16.779Z,1.80
2018-09-24T18:51:42.860Z,1.90
2018-09-24T18:54:08.926Z,2.00
2018-09-24T18:56:35.059Z,2.03
2018-09-24T18:59:01.176Z,1.67
2018-09-24T19:01:27.321Z,1.83
2018-09-24T19:03:53.432Z,2.33
2018-09-24T19:06:19.584Z,1.73
2018-09-24T19:08:45.667Z,2.00
2018-09-24T19:11:11.922Z,1.80
2018-09-24T19:13:38.012Z,1.93
2018-09-24T19:16:04.100Z,1.83
2018-09-24T19:18:30.236Z,1.80
2018-09-24T19:20:56.401Z,2.10
2018-09-24T19:23:22.539Z,2.57
2018-09-24T19:25:48.643Z,1.80
2018-09-24T19:28:14.736Z,1.93
2018-09-24T19:30:40.849Z,1.97
2018-09-24T19:33:07.006Z,1.60
2018-09-24T19:35:33.083Z,1.93
2018-09-24T19:37:59.212Z,2.00
2018-09-24T19:40:25.281Z,2.00
2018-09-24T19:42:51.358Z,1.90
2018-09-24T19:45:17.465Z,1.87
2018-09-24T19:47:43.557Z,2.13
2018-09-24T19:50:09.684Z,2.23
2018-09-24T19:52:35.807Z,2.00
2018-09-24T19:55:02.031Z,1.90
2018-09-24T19:57:28.090Z,2.30
2018-09-24T19:59:54.142Z,2.30
2018-09-24T20:02:20.265Z,3.43
2018-09-24T20:04:46.337Z,4.83
2018-09-24T20:07:13.489Z,4.40
2018-09-24T20:09:39.601Z,4.70
2018-09-24T20:12:05.721Z,5.60
2018-09-24T20:14:31.787Z,6.17
2018-09-24T20:16:57.915Z,5.70
2018-09-24T20:19:24.048Z,5.97
2018-09-24T20:21:51.045Z,6.37
2018-09-24T20:24:17.293Z,7.33
2018-09-24T20:26:43.370Z,6.10
2018-09-24T20:29:09.434Z,5.90
2018-09-24T20:31:35.493Z,5.57
2018-09-24T20:34:02.265Z,6.87
2018-09-24T20:36:28.522Z,6.17
2018-09-24T20:38:54.649Z,6.30
2018-09-24T20:41:20.744Z,6.10
2018-09-24T20:43:48.270Z,5.57
2018-09-24T20:46:14.448Z,6.43
2018-09-24T20:48:40.506Z,6.53
2018-09-24T20:51:06.638Z,6.60
2018-09-24T20:53:32.926Z,5.73
2018-09-24T20:55:59.058Z,6.83
2018-09-24T20:58:25.206Z,5.73
2018-09-24T21:00:51.416Z,6.20
2018-09-24T21:03:17.553Z,5.33
2018-09-24T21:05:43.627Z,7.23
2018-09-24T21:08:09.719Z,5.73
2018-09-24T21:10:35.810Z,5.90
2018-09-24T21:13:01.886Z,6.33
2018-09-24T21:15:28.054Z,6.50
2018-09-24T21:17:54.170Z,5.63
2018-09-24T21:20:20.266Z,6.07
2018-09-24T21:22:46.376Z,6.80
2018-09-24T21:25:12.495Z,5.73
2018-09-24T21:27:38.602Z,5.67
2018-09-24T21:30:04.729Z,6.27
2018-09-24T21:32:30.852Z,6.07
2018-09-24T21:34:57.077Z,5.80
2018-09-24T21:37:23.172Z,5.57
2018-09-24T21:39:49.276Z,5.90
2018-09-24T21:42:15.378Z,4.90
2018-09-24T21:44:41.507Z,5.47
2018-09-24T21:47:07.806Z,5.40
2018-09-24T21:49:34.113Z,5.43
2018-09-24T21:52:00.185Z,5.90
2018-09-24T21:54:26.361Z,5.20
2018-09-24T21:56:52.439Z,5.10
2018-09-24T21:59:18.571Z,6.07
2018-09-24T22:01:44.694Z,4.70
2018-09-24T22:04:10.991Z,5.93
2018-09-24T22:06:37.105Z,5.30
2018-09-24T22:09:04.890Z,4.90
2018-09-24T22:11:31.014Z,4.70
2018-09-24T22:13:57.091Z,4.83
2018-09-24T22:16:23.199Z,4.90
2018-09-24T22:18:49.321Z,4.93
2018-09-24T22:21:15.438Z,5.37
2018-09-24T22:23:41.545Z,4.60
2018-09-24T22:26:07.647Z,5.10
2018-09-24T22:28:33.778Z,5.37
2018-09-24T22:30:59.902Z,5.17
2018-09-24T22:33:26.010Z,4.73
2018-09-24T22:35:52.096Z,5.00
2018-09-24T22:38:18.205Z,5.67
2018-09-24T22:40:44.314Z,5.13
2018-09-24T22:43:10.416Z,5.13
2018-09-24T22:45:36.566Z,5.40
2018-09-24T22:48:02.659Z,4.90
2018-09-24T22:50:28.880Z,4.50
2018-09-24T22:52:54.976Z,4.30
2018-09-24T22:55:21.074Z,4.33
2018-09-24T22:57:47.157Z,3.87
2018-09-24T23:00:13.302Z,4.43
2018-09-24T23:02:39.915Z,4.53
2018-09-24T23:05:06.041Z,4.17
2018-09-24T23:07:32.134Z,4.73
2018-09-24T23:09:58.232Z,3.77
2018-09-24T23:12:24.313Z,4.40
2018-09-24T23:14:50.441Z,4.63
2018-09-24T23:17:16.537Z,4.30
2018-09-24T23:19:42.641Z,4.53
2018-09-24T23:22:08.771Z,3.90
2018-09-24T23:24:34.871Z,4.57
2018-09-24T23:27:00.954Z,4.63
2018-09-24T23:29:27.043Z,4.30
2018-09-24T23:31:53.164Z,4.77
2018-09-24T23:34:19.259Z,4.30
2018-09-24T23:36:45.337Z,3.97
2018-09-24T23:39:11.475Z,3.83
2018-09-24T23:41:37.558Z,4.33
2018-09-24T23:44:03.640Z,3.60
2018-09-24T23:46:29.747Z,4.77
2018-09-24T23:48:55.829Z,4.03
2018-09-24T23:51:21.933Z,4.00
2018-09-24T23:53:48.025Z,4.60
2018-09-24T23:56:14.115Z,3.70
2018-09-24T23:58:40.247Z,4.37
